Time;durP1;ratioP1;P1;durP2;ratioP2;P2;SDS_P1;SDS_P2;PMS_P1;PMS_P2;Temp;Humidity;BMP_temperature;BMP_pressure;BME280_temperature;BME280_humidity;BME280_pressure;Samples;Min_cycle;Max_cycle;Signal;HPM_P1;HPM_P2
2023/01/26 00:00:26;;;;;;;;;54.25;41.50;;;;;3.17;70.82;101822.31;6267988;22;46493;-76
2023/01/26 00:02:51;;;;;;;;;40.25;33.75;;;;;3.19;71.08;101811.91;6268521;22;46761;-76
2023/01/26 00:05:17;;;;;;;;;34.25;28.75;;;;;3.23;71.11;101821.31;6241100;22;45572;-78
2023/01/26 00:07:44;;;;;;;;;54.75;39.75;;;;;3.25;71.22;101816.94;6269497;22;45759;-77
2023/01/26 00:10:11;;;;;;;;;50.00;34.50;;;;;3.23;71.19;101806.66;6240759;22;47580;-77
2023/01/26 00:12:37;;;;;;;;;50.50;33.50;;;;;3.28;71.16;101802.22;6269921;22;45934;-76
2023/01/26 00:15:02;;;;;;;;;46.00;34.25;;;;;3.30;71.13;101803.00;6268055;22;45602;-78
2023/01/26 00:17:27;;;;;;;;;43.25;27.50;;;;;3.25;70.86;101781.56;6241421;22;45840;-78
2023/01/26 00:19:57;;;;;;;;;47.00;37.00;;;;;3.38;71.04;101795.09;6267422;22;47059;-78
2023/01/26 00:22:24;;;;;;;;;61.75;47.25;;;;;3.38;71.08;101783.00;6267883;22;45998;-76
2023/01/26 00:24:50;;;;;;;;;46.75;39.25;;;;;3.43;70.99;101782.88;6269091;22;45528;-78
2023/01/26 00:27:15;;;;;;;;;38.50;19.50;;;;;3.44;71.06;101774.25;6268915;22;45414;-78
2023/01/26 00:29:41;;;;;;;;;54.25;40.50;;;;;3.44;70.95;101763.03;6269462;22;46352;-77
2023/01/26 00:32:06;;;;;;;;;60.00;43.75;;;;;3.43;71.15;101753.53;6272042;22;45374;-77
2023/01/26 00:34:31;;;;;;;;;48.75;41.75;;;;;3.50;70.78;101755.97;6270383;22;45506;-78
2023/01/26 00:40:19;;;;;;;;;53.00;42.50;;;;;3.51;71.00;101747.28;6262451;22;45684;-77
2023/01/26 00:42:44;;;;;;;;;52.75;44.25;;;;;3.54;71.17;101738.59;6269008;22;46090;-76
2023/01/26 00:45:10;;;;;;;;;61.25;43.50;;;;;3.52;71.21;101738.63;6270276;22;45896;-77
2023/01/26 00:47:35;;;;;;;;;54.75;43.75;;;;;3.45;71.29;101721.56;6270357;22;45699;-77
2023/01/26 00:50:00;;;;;;;;;55.00;43.25;;;;;3.50;71.41;101729.22;6268496;22;46443;-78
2023/01/26 00:55:47;;;;;;;;;46.25;37.25;;;;;3.51;72.09;101728.31;6270259;22;45520;-78
2023/01/26 00:58:12;;;;;;;;;59.00;42.00;;;;;3.49;71.77;101723.19;6269754;22;45784;-77
2023/01/26 01:00:38;;;;;;;;;53.75;41.75;;;;;3.41;72.09;101709.53;6242101;22;48238;-78
2023/01/26 01:03:05;;;;;;;;;53.00;43.25;;;;;3.51;72.10;101728.31;6269426;22;46121;-78
2023/01/26 01:11:54;;;;;;;;;63.50;43.75;;;;;3.46;71.62;101710.28;6269513;22;45832;-77
2023/01/26 01:14:21;;;;;;;;;53.75;37.25;;;;;3.58;71.50;101711.72;6270152;22;45976;-79
2023/01/26 01:16:46;;;;;;;;;63.00;44.00;;;;;3.57;71.75;101697.06;6242906;22;46026;-76
2023/01/26 01:19:16;;;;;;;;;59.50;44.75;;;;;3.62;71.80;101705.56;6269501;22;45706;-77
2023/01/26 01:21:42;;;;;;;;;52.25;36.50;;;;;3.59;71.80;101692.69;6270079;22;46510;-77
2023/01/26 01:24:08;;;;;;;;;44.00;39.25;;;;;3.65;71.59;101697.75;6270562;22;46011;-74
2023/01/26 01:26:33;;;;;;;;;54.75;40.75;;;;;3.67;71.76;101706.34;6270693;22;45618;-77
2023/01/26 01:28:58;;;;;;;;;51.50;43.50;;;;;3.65;71.61;101697.75;6241948;22;45555;-78
2023/01/26 01:31:24;;;;;;;;;49.50;32.00;;;;;3.62;71.62;101684.84;6268823;22;47226;-75
2023/01/26 01:33:52;;;;;;;;;50.00;38.75;;;;;3.70;71.63;101701.91;6269837;22;46295;-76
2023/01/26 01:36:17;;;;;;;;;52.25;39.75;;;;;3.67;71.77;101694.19;6268936;22;45767;-77
2023/01/26 01:38:45;;;;;;;;;44.50;32.25;;;;;3.69;71.66;101696.75;6268329;22;45671;-75
2023/01/26 01:41:17;;;;;;;;;60.75;43.75;;;;;3.66;71.58;101689.94;6269152;22;45738;-75
2023/01/26 01:43:42;;;;;;;;;26.75;22.00;;;;;3.60;71.58;101678.88;6270221;22;45566;-77
2023/01/26 01:46:13;;;;;;;;;52.25;36.25;;;;;3.68;71.42;101695.06;6269643;22;45556;-75
2023/01/26 01:48:51;;;;;;;;;56.25;41.00;;;;;3.66;71.77;101705.47;6269037;22;45676;-76
2023/01/26 01:51:32;;;;;;;;;52.25;43.25;;;;;3.63;71.86;101697.78;6269919;22;45600;-77
2023/01/26 01:54:03;;;;;;;;;63.75;43.50;;;;;3.64;71.61;101702.06;6269995;22;47111;-76
2023/01/26 01:56:31;;;;;;;;;50.75;37.75;;;;;3.58;71.73;101683.22;6268537;22;45825;-78
2023/01/26 01:58:59;;;;;;;;;41.50;34.50;;;;;3.61;71.49;101689.19;6269460;22;45514;-78
2023/01/26 02:01:25;;;;;;;;;49.00;37.50;;;;;3.60;71.36;101682.31;6269087;22;46471;-78
2023/01/26 02:03:56;;;;;;;;;51.75;41.25;;;;;3.66;71.73;101689.94;6269089;22;46216;-76
2023/01/26 02:06:35;;;;;;;;;49.75;39.00;;;;;3.67;71.65;101688.19;6270223;22;45739;-78
2023/01/26 02:09:01;;;;;;;;;57.75;42.25;;;;;3.62;71.67;101682.25;6269004;22;45802;-78
2023/01/26 02:11:39;;;;;;;;;63.25;44.50;;;;;3.68;71.69;101687.28;6269906;22;46185;-76
2023/01/26 02:14:09;;;;;;;;;49.00;38.75;;;;;3.62;71.80;101682.25;6269963;22;46030;-78
2023/01/26 02:16:38;;;;;;;;;45.25;38.75;;;;;3.68;71.88;101682.09;6270445;22;45650;-77
2023/01/26 02:19:04;;;;;;;;;55.00;40.75;;;;;3.69;71.69;101681.22;6269972;22;45748;-77
2023/01/26 02:21:30;;;;;;;;;54.50;45.25;;;;;3.73;71.92;101690.59;6268777;22;47421;-78
2023/01/26 02:27:17;;;;;;;;;56.50;43.00;;;;;3.68;71.86;101676.91;6269107;22;45908;-77
2023/01/26 02:29:42;;;;;;;;;49.75;35.25;;;;;3.76;71.66;101698.31;6268281;22;45785;-77
2023/01/26 02:32:08;;;;;;;;;49.75;39.75;;;;;3.74;71.57;101688.00;6269733;22;46358;-77
2023/01/26 02:34:33;;;;;;;;;53.75;35.50;;;;;3.75;71.69;101689.69;6269642;22;46739;-78
2023/01/26 02:36:59;;;;;;;;;56.25;40.00;;;;;3.63;71.76;101661.50;6269961;22;45793;-77
2023/01/26 02:39:48;;;;;;;;;49.00;41.50;;;;;3.76;71.83;101690.53;6267537;22;45773;-77
2023/01/26 02:44:58;;;;;;;;;48.50;36.25;;;;;3.70;71.84;101665.63;6269638;22;45635;-76
2023/01/26 02:47:23;;;;;;;;;57.50;44.00;;;;;3.68;71.92;101661.38;6269074;22;45544;-77
2023/01/26 02:49:49;;;;;;;;;59.25;45.00;;;;;3.72;71.79;101668.19;6242354;22;45859;-75
2023/01/26 02:52:24;;;;;;;;;53.50;41.75;;;;;3.77;71.98;101671.53;6242952;22;45610;-77
2023/01/26 02:57:35;;;;;;;;;59.50;44.00;;;;;3.76;71.79;101669.81;6271369;22;45772;-77
2023/01/26 03:00:01;;;;;;;;;60.00;46.50;;;;;3.73;72.10;101667.28;6271417;22;45554;-77
2023/01/26 03:02:26;;;;;;;;;50.00;40.25;;;;;3.71;72.00;101664.75;6243961;22;47363;-76
2023/01/26 03:04:52;;;;;;;;;56.50;42.00;;;;;3.75;71.67;101666.38;6271755;22;45678;-76
2023/01/26 03:07:17;;;;;;;;;52.75;44.50;;;;;3.74;71.99;101656.03;6271186;22;45588;-77
2023/01/26 03:09:43;;;;;;;;;54.50;41.75;;;;;3.74;72.29;101667.25;6270716;22;45556;-78
2023/01/26 03:12:08;;;;;;;;;59.25;41.50;;;;;3.74;72.20;101663.81;6270599;22;46094;-77
2023/01/26 03:14:33;;;;;;;;;60.25;39.50;;;;;3.72;72.22;101668.19;6268831;22;46027;-77
2023/01/26 03:16:59;;;;;;;;;55.75;41.25;;;;;3.72;71.84;101660.44;6268734;22;45585;-77
2023/01/26 03:28:25;;;;;;;;;46.75;32.25;;;;;3.66;71.90;101637.25;6174106;23;46019;-76
2023/01/26 03:30:53;;;;;;;;;40.75;32.75;;;;;3.73;72.23;101646.56;6174078;23;45607;-76
2023/01/26 03:33:19;;;;;;;;;56.50;36.75;;;;;3.73;72.08;101636.19;6173990;23;46173;-77
2023/01/26 03:35:45;;;;;;;;;42.00;32.50;;;;;3.73;72.25;101637.03;6173337;23;46001;-75
2023/01/26 03:38:11;;;;;;;;;42.50;33.75;;;;;3.71;72.04;101630.22;6173647;23;45834;-77
2023/01/26 03:57:04;;;;;;;;;49.50;35.50;;;;;3.73;72.32;101621.50;6205148;22;45637;-76
2023/01/26 03:59:39;;;;;;;;;53.25;37.00;;;;;3.73;72.14;101626.69;6205825;22;45643;-75
2023/01/26 04:10:19;;;;;;;;;46.50;41.00;;;;;3.70;72.19;101608.63;6268045;22;45902;-77
2023/01/26 04:27:02;;;;;;;;;49.25;38.00;;;;;3.73;72.69;101605.09;6270008;22;46081;-74
2023/01/26 04:29:28;;;;;;;;;47.00;35.25;;;;;3.75;72.85;101614.53;6269780;22;46091;-76
2023/01/26 04:31:53;;;;;;;;;44.25;32.00;;;;;3.74;72.53;101615.44;6294460;22;45892;-76
2023/01/26 04:34:19;;;;;;;;;50.50;39.75;;;;;3.68;72.54;101610.41;6270350;22;45422;-75
2023/01/26 04:36:44;;;;;;;;;50.75;33.75;;;;;3.64;72.65;101601.03;6270023;22;47143;-75
2023/01/26 04:42:59;;;;;;;;;64.50;37.25;;;;;3.70;72.59;101624.19;6266669;22;46161;-76
2023/01/26 04:45:24;;;;;;;;;43.50;35.75;;;;;3.70;72.75;101605.19;6269854;22;45594;-74
2023/01/26 04:47:50;;;;;;;;;54.25;40.25;;;;;3.67;72.64;101607.88;6268515;22;46542;-76
2023/01/26 04:50:18;;;;;;;;;46.00;36.50;;;;;3.73;72.61;101618.91;6270525;22;45749;-76
2023/01/26 04:52:43;;;;;;;;;43.25;34.25;;;;;3.70;72.64;101616.41;6269964;22;45632;-76
2023/01/26 04:58:32;;;;;;;;;51.25;38.75;;;;;3.72;72.74;101614.63;6269323;22;46202;-76
2023/01/26 05:00:57;;;;;;;;;45.00;33.00;;;;;3.75;72.83;101617.13;6270001;22;45610;-75
2023/01/26 05:03:25;;;;;;;;;50.25;38.25;;;;;3.78;72.88;101621.38;6242430;22;45718;-76
2023/01/26 05:05:53;;;;;;;;;44.50;27.75;;;;;3.77;72.73;101617.97;6270542;22;45665;-76
2023/01/26 05:08:20;;;;;;;;;52.75;33.25;;;;;3.79;72.99;101623.06;6270945;22;45710;-76
2023/01/26 05:14:07;;;;;;;;;41.75;33.00;;;;;3.71;72.90;101607.75;6271032;22;45674;-76
2023/01/26 05:16:32;;;;;;;;;44.25;33.50;;;;;3.80;72.82;101611.81;6242825;22;45692;-76
2023/01/26 05:18:58;;;;;;;;;38.50;32.00;;;;;3.80;72.66;101610.09;6269405;22;45639;-76
2023/01/26 05:21:24;;;;;;;;;62.75;43.50;;;;;3.76;72.74;101607.63;6269299;22;47131;-77
2023/01/26 05:23:49;;;;;;;;;35.00;27.75;;;;;3.81;72.84;101616.13;6269580;22;45841;-75
2023/01/26 05:29:37;;;;;;;;;37.00;29.00;;;;;3.77;72.74;101609.31;6269226;22;45540;-75
2023/01/26 05:32:02;;;;;;;;;52.00;41.50;;;;;3.78;72.89;101613.59;6270246;22;46300;-76
2023/01/26 05:34:27;;;;;;;;;41.50;32.00;;;;;3.67;72.86;101589.75;6270310;22;45562;-76
2023/01/26 05:36:53;;;;;;;;;50.50;33.25;;;;;3.78;73.11;101613.59;6270840;22;45522;-74
2023/01/26 05:39:18;;;;;;;;;39.00;31.67;;;;;3.77;72.98;101615.38;6271273;22;46155;-77
2023/01/26 05:45:45;;;;;;;;;35.25;31.50;;;;;3.79;73.00;101612.72;6266853;22;45579;-76
2023/01/26 05:48:10;;;;;;;;;40.50;34.50;;;;;3.69;73.08;101593.13;6268879;22;45508;-77
2023/01/26 05:50:35;;;;;;;;;47.75;31.50;;;;;3.83;73.19;101613.50;6269397;22;46987;-76
2023/01/26 05:53:01;;;;;;;;;42.00;32.25;;;;;3.85;73.00;101615.13;6268948;22;46078;-75
2023/01/26 05:55:27;;;;;;;;;64.50;38.50;;;;;3.73;73.01;101594.72;6269276;22;45774;-76
2023/01/26 05:57:53;;;;;;;;;44.25;34.75;;;;;3.84;73.08;101608.25;6270032;22;45781;-76
2023/01/26 06:00:18;;;;;;;;;46.75;34.50;;;;;3.85;73.01;101604.78;6269329;22;45633;-75
2023/01/26 06:02:43;;;;;;;;;44.50;33.75;;;;;3.91;73.02;101620.16;6269093;22;46195;-76
2023/01/26 06:05:09;;;;;;;;;41.00;34.00;;;;;3.93;73.33;101613.19;6270588;22;45629;-76
2023/01/26 06:07:34;;;;;;;;;47.50;32.50;;;;;3.91;73.09;101612.38;6269691;22;45447;-77
2023/01/26 06:10:00;;;;;;;;;48.25;29.75;;;;;3.91;73.15;101609.78;6269024;22;46427;-76
2023/01/26 06:12:30;;;;;;;;;39.00;30.25;;;;;3.89;73.22;101616.75;6269395;22;46242;-76
2023/01/26 06:14:56;;;;;;;;;45.75;34.00;;;;;3.95;73.03;101634.72;6269048;22;45802;-77
2023/01/26 06:17:21;;;;;;;;;56.50;35.50;;;;;3.97;73.03;101625.19;6241027;22;45574;-75
2023/01/26 06:19:47;;;;;;;;;52.00;37.75;;;;;3.98;73.12;101620.84;6267953;22;46631;-76
2023/01/26 06:22:13;;;;;;;;;41.50;31.75;;;;;3.98;73.20;101613.94;6269498;22;46948;-77
2023/01/26 06:24:38;;;;;;;;;41.75;35.25;;;;;3.97;73.35;101614.81;6270386;22;45613;-77
2023/01/26 06:30:25;;;;;;;;;43.75;30.00;;;;;4.00;73.24;101606.94;6271162;22;46084;-78
2023/01/26 06:32:50;;;;;;;;;39.75;30.25;;;;;4.03;73.19;101614.63;6271317;22;45804;-78
2023/01/26 06:35:16;;;;;;;;;41.75;31.50;;;;;4.04;73.14;101621.53;6270202;22;45562;-78
2023/01/26 06:37:41;;;;;;;;;38.00;29.25;;;;;4.02;74.04;101614.69;6269436;22;45732;-75
2023/01/26 06:40:07;;;;;;;;;35.00;29.00;;;;;3.98;74.20;101603.56;6268032;22;46630;-77
2023/01/26 06:45:56;;;;;;;;;37.75;28.50;;;;;3.97;74.02;101622.59;6265503;22;45667;-77
2023/01/26 06:48:22;;;;;;;;;40.00;32.75;;;;;3.95;73.93;101611.41;6241932;22;45946;-74
2023/01/26 06:50:50;;;;;;;;;41.75;33.50;;;;;3.96;73.83;101615.69;6242034;22;47376;-74
2023/01/26 06:53:41;;;;;;;;;31.75;25.00;;;;;3.99;73.81;101617.38;6269034;22;46350;-73
2023/01/26 06:56:06;;;;;;;;;38.50;35.50;;;;;3.97;73.79;101616.56;6269723;22;45756;-74
2023/01/26 06:58:32;;;;;;;;;35.00;29.25;;;;;3.98;73.88;101607.88;6269541;22;45550;-71
2023/01/26 07:00:58;;;;;;;;;30.50;21.75;;;;;4.03;73.50;101617.22;6269567;22;46539;-74
2023/01/26 07:03:24;;;;;;;;;40.50;30.75;;;;;4.00;73.69;101606.94;6269063;22;46048;-73
2023/01/26 07:05:50;;;;;;;;;47.50;33.50;;;;;4.14;73.73;101624.72;6268967;22;45559;-74
2023/01/26 07:08:15;;;;;;;;;38.50;29.50;;;;;3.97;73.67;101596.66;6268757;22;45470;-71
2023/01/26 07:10:40;;;;;;;;;28.75;25.25;;;;;4.09;73.83;101609.28;6267891;22;47388;-76
2023/01/26 07:16:28;;;;;;;;;36.00;30.25;;;;;4.05;73.58;101605.06;6270705;22;45823;-74
2023/01/26 07:18:56;;;;;;;;;33.00;26.75;;;;;4.17;73.55;101630.66;6268700;22;45749;-75
2023/01/26 07:21:21;;;;;;;;;43.00;32.75;;;;;4.22;73.16;101626.19;6242159;22;47378;-76
2023/01/26 07:23:48;;;;;;;;;40.00;31.25;;;;;4.25;72.91;101625.25;6269255;22;46494;-76
2023/01/26 07:26:14;;;;;;;;;40.25;31.25;;;;;4.28;73.49;101635.53;6242255;22;45646;-75
2023/01/26 07:28:40;;;;;;;;;59.75;45.50;;;;;4.28;73.38;101619.13;6266769;22;45918;-72
2023/01/26 07:31:06;;;;;;;;;40.75;29.00;;;;;4.32;73.54;101633.72;6241727;22;47084;-74
2023/01/26 07:33:32;;;;;;;;;39.75;30.00;;;;;4.34;73.68;101635.34;6268933;22;46133;-74
2023/01/26 07:35:58;;;;;;;;;41.75;31.00;;;;;4.34;73.34;101637.94;6268500;22;45646;-74
2023/01/26 07:38:25;;;;;;;;;39.25;31.75;;;;;4.33;73.62;101631.06;6265975;22;45940;-73
2023/01/26 07:40:51;;;;;;;;;39.75;33.00;;;;;4.40;73.41;101635.19;6268480;22;46230;-75
2023/01/26 07:46:38;;;;;;;;;14.50;8.00;;;;;4.44;73.39;101626.41;6264527;22;45761;-74
2023/01/26 07:49:04;;;;;;;;;39.75;34.00;;;;;4.45;73.94;101625.53;6266991;22;45921;-73
2023/01/26 07:51:29;;;;;;;;;40.50;32.00;;;;;4.48;73.09;101635.78;6268458;22;45510;-74
2023/01/26 07:53:54;;;;;;;;;45.00;36.00;;;;;4.51;73.38;101640.06;6268654;22;45617;-74
2023/01/26 07:56:20;;;;;;;;;40.50;30.50;;;;;4.53;73.62;101638.28;6268684;22;45726;-74
2023/01/26 07:58:50;;;;;;;;;35.25;30.75;;;;;4.52;73.36;101642.63;6268252;22;45748;-73
2023/01/26 08:01:16;;;;;;;;;41.25;32.75;;;;;4.57;73.08;101642.47;6240972;22;48254;-74
2023/01/26 08:03:44;;;;;;;;;37.75;30.50;;;;;4.58;73.57;101646.78;6269172;22;46424;-74
2023/01/26 08:06:12;;;;;;;;;33.50;26.50;;;;;4.60;73.47;101653.59;6268819;22;45598;-74
2023/01/26 08:08:41;;;;;;;;;30.25;26.50;;;;;4.58;73.43;101645.03;6268405;22;45958;-74
2023/01/26 08:11:07;;;;;;;;;46.50;34.25;;;;;4.63;73.22;101650.94;6268840;22;46688;-75
2023/01/26 08:16:54;;;;;;;;;43.75;35.25;;;;;4.70;73.44;101653.34;6268107;22;46012;-73
2023/01/26 08:19:20;;;;;;;;;43.25;37.25;;;;;4.70;73.64;101654.19;6268798;22;45758;-73
2023/01/26 08:21:45;;;;;;;;;46.50;39.25;;;;;4.72;73.49;101667.13;6268785;22;47527;-73
2023/01/26 08:24:11;;;;;;;;;43.25;38.75;;;;;4.70;73.31;101663.72;6268471;22;47011;-74
2023/01/26 08:26:37;;;;;;;;;50.25;34.50;;;;;4.74;73.71;101661.00;6269453;22;45758;-74
2023/01/26 08:32:24;;;;;;;;;42.75;36.75;;;;;4.76;73.27;101679.94;6267762;22;45528;-72
2023/01/26 08:34:49;;;;;;;;;53.25;36.00;;;;;4.77;73.64;101680.81;6268098;22;46383;-74
2023/01/26 08:37:14;;;;;;;;;55.25;41.00;;;;;4.81;73.22;101677.22;6269040;22;45717;-73
2023/01/26 08:39:40;;;;;;;;;48.25;43.25;;;;;4.82;73.62;101674.56;6268969;22;45815;-74
2023/01/26 08:42:05;;;;;;;;;45.00;39.25;;;;;4.86;73.12;101683.97;6268238;22;46634;-74
2023/01/26 08:44:30;;;;;;;;;42.75;33.00;;;;;4.91;73.40;101689.88;6268757;22;46729;-72
2023/01/26 08:46:56;;;;;;;;;41.50;36.00;;;;;4.95;72.94;101695.84;6267972;22;45618;-72
2023/01/26 08:49:21;;;;;;;;;43.50;36.25;;;;;4.97;72.97;101696.63;6268197;22;45810;-73
2023/01/26 08:51:46;;;;;;;;;43.50;38.75;;;;;4.98;73.31;101696.59;6240902;22;47547;-74
2023/01/26 08:54:11;;;;;;;;;44.25;34.50;;;;;4.99;73.26;101687.06;6267976;22;46140;-73
2023/01/26 08:56:37;;;;;;;;;50.75;28.50;;;;;5.04;73.05;101691.22;6270308;22;45720;-74
2023/01/26 09:02:24;;;;;;;;;40.50;32.00;;;;;5.10;73.25;101691.91;6267968;22;45891;-74
2023/01/26 09:04:49;;;;;;;;;41.50;30.00;;;;;5.10;73.05;101686.72;6268149;22;46401;-74
2023/01/26 09:07:15;;;;;;;;;35.25;29.50;;;;;5.11;72.55;101694.47;6242022;22;45932;-74
2023/01/26 09:09:40;;;;;;;;;28.25;24.75;;;;;5.12;72.58;101697.91;6269349;22;45546;-74
2023/01/26 09:12:05;;;;;;;;;37.50;31.75;;;;;5.09;72.60;101693.66;6269917;22;46336;-74
2023/01/26 09:14:31;;;;;;;;;31.50;27.25;;;;;5.11;72.73;101698.81;6270139;22;46227;-73
2023/01/26 09:16:56;;;;;;;;;41.50;29.00;;;;;5.12;72.47;101708.31;6269327;22;45585;-74
2023/01/26 09:19:22;;;;;;;;;34.75;28.50;;;;;4.99;72.71;101687.91;6269867;22;45723;-74
2023/01/26 09:21:51;;;;;;;;;31.75;30.00;;;;;5.10;72.13;101708.34;6269485;22;46820;-74
2023/01/26 09:24:17;;;;;;;;;40.25;32.25;;;;;5.09;72.66;101714.44;6269443;22;46844;-74
2023/01/26 09:26:42;;;;;;;;;45.25;37.75;;;;;5.13;72.85;101717.81;6270201;22;45558;-75
2023/01/26 09:32:29;;;;;;;;;28.50;26.00;;;;;5.13;72.19;101723.00;6269895;22;46129;-74
2023/01/26 09:34:55;;;;;;;;;40.00;27.75;;;;;5.12;72.64;101723.88;6269569;22;46263;-75
2023/01/26 09:37:21;;;;;;;;;42.00;33.75;;;;;5.07;72.16;101717.06;6241921;22;45522;-73
2023/01/26 09:39:46;;;;;;;;;46.25;41.00;;;;;5.08;72.56;101718.78;6270004;22;45500;-76
2023/01/26 09:49:43;;;;;;;;;47.50;42.50;;;;;5.01;72.90;101730.25;6240113;22;45611;-74
2023/01/26 09:52:34;;;;;;;;;43.25;33.50;;;;;4.99;72.43;101731.19;6239900;22;45487;-73
2023/01/26 09:55:05;;;;;;;;;43.25;37.50;;;;;4.95;72.90;101725.25;6211324;22;48113;-74
2023/01/26 09:57:41;;;;;;;;;48.25;33.75;;;;;4.94;73.02;101730.47;6238429;22;46057;-74
2023/01/26 10:00:20;;;;;;;;;35.75;31.25;;;;;4.91;73.32;101733.19;6239293;22;45812;-75
2023/01/26 10:03:04;;;;;;;;;36.75;32.00;;;;;4.90;73.54;101734.06;6239279;22;45729;-74
2023/01/26 10:05:52;;;;;;;;;35.75;29.75;;;;;4.92;73.34;101732.25;6210995;22;46806;-74
2023/01/26 10:08:20;;;;;;;;;44.00;33.25;;;;;4.93;73.02;101736.56;6238127;22;46019;-74
2023/01/26 10:10:53;;;;;;;;;35.50;24.25;;;;;4.92;73.69;101738.31;6211241;22;45870;-73
2023/01/26 10:13:20;;;;;;;;;44.75;30.50;;;;;4.95;73.53;101747.78;6238829;22;45658;-74
2023/01/26 10:16:11;;;;;;;;;34.25;30.00;;;;;4.96;73.04;101745.13;6238265;22;46521;-73
2023/01/26 10:18:44;;;;;;;;;41.50;32.00;;;;;4.97;73.48;101743.34;6113641;23;47322;-74
2023/01/26 10:21:11;;;;;;;;;30.75;24.50;;;;;4.99;73.40;101736.38;6115182;23;45564;-73
2023/01/26 10:23:46;;;;;;;;;47.75;33.25;;;;;4.97;73.63;101739.03;6115419;23;45650;-73
2023/01/26 10:26:17;;;;;;;;;35.00;31.75;;;;;4.98;73.29;101745.91;6115493;23;46741;-74
2023/01/26 10:28:45;;;;;;;;;44.50;35.25;;;;;4.97;73.59;101740.75;6113576;23;46842;-73
2023/01/26 10:31:16;;;;;;;;;34.50;29.50;;;;;4.99;73.08;101742.44;6114763;23;45855;-75
2023/01/26 10:34:08;;;;;;;;;39.25;30.75;;;;;5.01;73.53;101748.44;6115873;23;45604;-74
2023/01/26 10:36:34;;;;;;;;;44.25;35.50;;;;;5.01;73.45;101742.41;6114838;23;46477;-74
2023/01/26 10:39:09;;;;;;;;;38.00;29.75;;;;;4.97;73.43;101732.97;6113968;23;46977;-74
2023/01/26 10:41:36;;;;;;;;;37.75;31.25;;;;;5.00;73.11;101746.75;6115706;23;45784;-74
2023/01/26 10:44:39;;;;;;;;;34.50;30.00;;;;;5.05;73.66;101744.00;6090133;23;45532;-74
2023/01/26 10:47:06;;;;;;;;;39.75;31.50;;;;;5.09;73.03;101740.41;6118545;23;46445;-73
2023/01/26 10:49:31;;;;;;;;;39.75;29.00;;;;;5.10;73.05;101725.69;6144002;23;47184;-73
2023/01/26 10:52:08;;;;;;;;;37.75;28.75;;;;;5.15;73.05;101729.84;6145374;23;45807;-73
2023/01/26 10:54:35;;;;;;;;;29.50;26.25;;;;;5.19;73.15;101731.44;6152482;22;45589;-72
2023/01/26 10:57:03;;;;;;;;;37.00;30.00;;;;;5.22;73.35;101725.31;6268980;22;46663;-73
2023/01/26 10:59:37;;;;;;;;;37.25;30.25;;;;;5.25;73.53;101725.19;6268403;22;45986;-73
2023/01/26 11:02:15;;;;;;;;;31.00;27.25;;;;;5.28;73.12;101719.94;6269293;22;45739;-74
2023/01/26 11:04:41;;;;;;;;;34.25;29.25;;;;;5.29;73.62;101713.84;6270190;22;45918;-74
2023/01/26 11:07:40;;;;;;;;;41.25;34.00;;;;;5.35;73.50;101726.59;6268745;22;47159;-75
2023/01/26 11:10:30;;;;;;;;;49.50;33.25;;;;;5.37;73.64;101722.22;6205498;22;47097;-74
2023/01/26 11:13:07;;;;;;;;;39.25;35.75;;;;;5.38;73.62;101708.34;6206515;22;46087;-74
2023/01/26 11:15:47;;;;;;;;;43.50;34.00;;;;;5.41;73.20;101713.41;6205290;22;45846;-73
2023/01/26 11:18:41;;;;;;;;;39.00;34.00;;;;;5.42;73.48;101705.59;6204666;22;45887;-74
2023/01/26 11:21:30;;;;;;;;;36.00;32.50;;;;;5.46;73.51;101703.72;6182742;22;46102;-73
2023/01/26 11:24:28;;;;;;;;;44.25;33.75;;;;;5.50;73.30;101702.75;6204842;22;45977;-73
2023/01/26 11:27:27;;;;;;;;;46.00;34.75;;;;;5.52;73.08;101702.69;6143397;23;45869;-73
2023/01/26 11:30:31;;;;;;;;;45.75;39.75;;;;;5.54;73.29;101700.91;6143560;23;46400;-74
2023/01/26 11:33:13;;;;;;;;;48.75;39.00;;;;;5.55;73.38;101693.06;6143701;23;47194;-75
2023/01/26 11:36:10;;;;;;;;;46.00;37.50;;;;;5.55;73.19;101700.00;6143856;23;45718;-74
2023/01/26 11:38:45;;;;;;;;;40.00;32.75;;;;;5.57;73.05;101703.38;6143523;23;45933;-74
2023/01/26 11:41:39;;;;;;;;;35.00;28.25;;;;;5.58;73.04;101692.09;6145022;23;46579;-74
2023/01/26 11:47:40;;;;;;;;;36.75;29.25;;;;;5.62;72.80;101688.47;6204323;22;45670;-75
2023/01/26 11:50:21;;;;;;;;;33.25;25.00;;;;;5.62;72.90;101688.47;6205482;22;46070;-73
2023/01/26 11:52:55;;;;;;;;;32.00;31.00;;;;;5.61;72.86;101687.66;6203913;22;46597;-73
2023/01/26 11:55:36;;;;;;;;;31.50;22.50;;;;;5.63;72.90;101690.19;6203505;22;47343;-73
2023/01/26 11:58:09;;;;;;;;;32.75;25.75;;;;;5.62;72.55;101697.13;6203766;22;45752;-74
2023/01/26 12:03:56;;;;;;;;;31.50;27.50;;;;;5.57;73.13;101683.44;6268728;22;45907;-73
2023/01/26 12:06:36;;;;;;;;;29.25;25.50;;;;;5.59;73.21;101696.41;6268752;22;45946;-74
2023/01/26 12:09:09;;;;;;;;;25.25;22.00;;;;;5.57;73.06;101699.03;6267760;22;45839;-74
2023/01/26 12:11:40;;;;;;;;;33.00;30.25;;;;;5.53;73.10;101697.44;6269022;22;45490;-74
2023/01/26 12:14:16;;;;;;;;;37.25;29.00;;;;;5.52;73.11;101682.75;6268518;22;46734;-74
2023/01/26 12:16:42;;;;;;;;;22.00;15.50;;;;;5.53;73.84;101694.00;6267939;22;46209;-74
2023/01/26 12:19:38;;;;;;;;;31.67;28.67;;;;;5.50;73.89;101681.97;6266451;22;45722;-73
2023/01/26 12:22:23;;;;;;;;;27.00;24.00;;;;;5.46;73.96;101675.16;6268376;22;45643;-74
2023/01/26 12:24:56;;;;;;;;;25.00;21.75;;;;;5.30;74.20;101647.97;6268858;22;46758;-74
2023/01/26 12:27:30;;;;;;;;;21.00;18.50;;;;;5.31;74.28;101650.53;6268411;22;46406;-74
2023/01/26 12:30:01;;;;;;;;;29.75;26.25;;;;;5.46;74.23;101681.19;6269111;22;45934;-74
2023/01/26 12:32:26;;;;;;;;;32.75;24.75;;;;;5.46;74.67;101672.53;6269088;22;45561;-74
2023/01/26 12:34:52;;;;;;;;;29.25;22.00;;;;;5.46;74.30;101662.16;6268958;22;47275;-74
2023/01/26 12:37:36;;;;;;;;;23.25;19.25;;;;;5.47;74.69;101669.06;6268977;22;46049;-73
2023/01/26 12:40:30;;;;;;;;;27.00;22.25;;;;;5.47;74.46;101662.09;6269480;22;45667;-73
2023/01/26 12:43:17;;;;;;;;;26.75;22.00;;;;;5.47;74.38;101653.47;6270953;22;45739;-74
2023/01/26 12:45:47;;;;;;;;;19.25;16.50;;;;;5.47;74.98;101643.06;6270897;22;45622;-74
2023/01/26 12:48:19;;;;;;;;;21.25;18.00;;;;;5.51;75.15;101651.63;6269723;22;46084;-74
2023/01/26 12:50:48;;;;;;;;;20.50;17.25;;;;;5.49;74.92;101638.69;6270140;22;45863;-72
2023/01/26 12:53:29;;;;;;;;;18.00;16.25;;;;;5.47;75.31;101645.66;6268892;22;45530;-74
2023/01/26 12:56:04;;;;;;;;;17.00;14.50;;;;;5.49;75.25;101644.72;6244665;22;45656;-74
2023/01/26 12:58:38;;;;;;;;;16.00;13.75;;;;;5.50;74.94;101637.78;6269063;22;46474;-73
2023/01/26 13:01:08;;;;;;;;;13.25;12.00;;;;;5.49;74.86;101636.94;6270422;22;45891;-73
2023/01/26 13:03:38;;;;;;;;;20.25;13.75;;;;;5.49;75.05;101636.09;6270287;22;45582;-74
2023/01/26 13:06:13;;;;;;;;;14.75;14.25;;;;;5.48;75.00;101637.81;6269932;22;46436;-73
2023/01/26 13:08:59;;;;;;;;;19.25;17.75;;;;;5.48;75.07;101630.03;6242010;22;47275;-73
2023/01/26 13:11:51;;;;;;;;;18.75;11.50;;;;;5.47;75.10;101640.47;6242387;22;45818;-74
2023/01/26 13:17:48;;;;;;;;;20.25;15.50;;;;;5.42;74.99;101621.59;6269760;22;45790;-74
2023/01/26 13:20:25;;;;;;;;;17.50;14.50;;;;;5.41;75.07;101630.28;6269746;22;46254;-72
2023/01/26 13:22:51;;;;;;;;;16.00;14.00;;;;;5.39;75.32;101629.50;6269680;22;45936;-73
2023/01/26 13:25:32;;;;;;;;;16.25;15.25;;;;;5.37;74.95;101634.72;6269803;22;45694;-74
2023/01/26 13:28:00;;;;;;;;;14.25;12.00;;;;;5.37;75.33;101633.88;6269170;22;46500;-74
2023/01/26 13:33:47;;;;;;;;;22.25;18.00;;;;;5.35;75.16;101635.66;6269827;22;45787;-73
2023/01/26 13:36:15;;;;;;;;;18.25;15.25;;;;;5.35;75.84;101639.13;6269549;22;45839;-74
2023/01/26 13:38:47;;;;;;;;;16.50;15.00;;;;;5.27;75.74;101627.28;6269350;22;46537;-74
2023/01/26 13:41:19;;;;;;;;;15.00;14.50;;;;;5.33;75.71;101635.75;6269586;22;46366;-74
2023/01/26 13:44:05;;;;;;;;;20.25;16.00;;;;;5.30;75.65;101632.38;6270398;22;45823;-73